createdAt,value
2017-12-20T00:00:52.607Z,0
2017-12-20T00:02:02.664Z,0
2017-12-20T00:03:12.457Z,0
2017-12-20T00:04:22.603Z,0
2017-12-20T00:05:32.663Z,0
2017-12-20T00:06:42.468Z,0
2017-12-20T00:07:52.260Z,0
2017-12-20T00:09:02.323Z,0
2017-12-20T00:10:12.120Z,0
2017-12-20T00:11:22.194Z,0
2017-12-20T00:12:31.978Z,0
2017-12-20T00:13:41.769Z,0
2017-12-20T00:14:51.839Z,0
2017-12-20T00:16:01.628Z,0
2017-12-20T00:17:12.826Z,0
2017-12-20T00:18:22.883Z,0
2017-12-20T00:19:32.698Z,0
2017-12-20T00:20:42.774Z,0
2017-12-20T00:21:52.574Z,0
2017-12-20T00:23:02.420Z,0
2017-12-20T00:24:12.478Z,0
2017-12-20T00:25:22.541Z,0
2017-12-20T00:26:32.320Z,0
2017-12-20T00:27:42.375Z,0
2017-12-20T00:28:52.424Z,0
2017-12-20T00:30:02.222Z,0
2017-12-20T00:31:11.755Z,0
2017-12-20T00:32:21.798Z,0
2017-12-20T00:33:31.586Z,0
2017-12-20T00:34:41.393Z,0
2017-12-20T00:35:51.509Z,0
2017-12-20T00:37:01.565Z,0
2017-12-20T00:38:11.357Z,0
2017-12-20T00:39:21.405Z,0
2017-12-20T00:40:31.191Z,0
2017-12-20T00:41:41.232Z,0
2017-12-20T00:42:51.028Z,0
2017-12-20T00:44:00.825Z,0
2017-12-20T00:45:10.668Z,0
2017-12-20T00:46:20.720Z,0
2017-12-20T00:47:30.896Z,0
2017-12-20T00:48:40.702Z,0
2017-12-20T00:49:50.746Z,0
2017-12-20T00:51:00.541Z,0
2017-12-20T00:52:10.063Z,0
2017-12-20T00:53:19.862Z,0
2017-12-20T00:54:29.904Z,0
2017-12-20T00:55:39.962Z,0
2017-12-20T00:56:50.004Z,0
2017-12-20T00:57:59.807Z,0
2017-12-20T00:59:09.853Z,0
2017-12-20T01:00:19.895Z,0
2017-12-20T01:01:31.227Z,0
2017-12-20T01:02:41.275Z,0
2017-12-20T01:03:51.343Z,0
2017-12-20T01:05:01.388Z,0
2017-12-20T01:06:11.179Z,0
2017-12-20T01:07:20.985Z,0
2017-12-20T01:08:31.054Z,0
2017-12-20T01:09:41.090Z,0
2017-12-20T01:10:50.622Z,0
2017-12-20T01:12:00.433Z,0
2017-12-20T01:13:10.489Z,0
2017-12-20T01:14:20.542Z,0
2017-12-20T01:15:30.354Z,0
2017-12-20T01:16:40.149Z,0
2017-12-20T01:17:49.936Z,0
2017-12-20T01:18:59.460Z,0
2017-12-20T01:20:09.296Z,0
2017-12-20T01:21:19.150Z,0
2017-12-20T01:22:29.210Z,0
2017-12-20T01:23:38.735Z,0
2017-12-20T01:24:48.528Z,0
2017-12-20T01:25:58.744Z,0
2017-12-20T01:27:08.276Z,0
2017-12-20T01:28:18.327Z,0
2017-12-20T01:29:28.371Z,0
2017-12-20T01:30:38.160Z,0
2017-12-20T01:31:47.764Z,0
2017-12-20T01:32:57.814Z,0
2017-12-20T01:34:07.855Z,0
2017-12-20T01:35:17.909Z,0
2017-12-20T01:36:27.980Z,0
2017-12-20T01:37:37.559Z,0
2017-12-20T01:38:48.348Z,0
2017-12-20T01:39:58.128Z,0
2017-12-20T01:41:08.185Z,0
2017-12-20T01:42:18.553Z,0
2017-12-20T01:43:28.646Z,0
2017-12-20T01:44:38.721Z,0
2017-12-20T01:45:48.829Z,0
2017-12-20T01:46:58.881Z,0
2017-12-20T01:48:08.659Z,0
2017-12-20T01:49:18.461Z,0
2017-12-20T01:50:28.511Z,0
2017-12-20T01:51:38.617Z,0
2017-12-20T01:52:48.419Z,0
2017-12-20T01:53:57.686Z,0
2017-12-20T01:55:07.203Z,0
2017-12-20T01:56:16.999Z,0
2017-12-20T01:57:27.063Z,0
2017-12-20T01:58:36.858Z,0
2017-12-20T01:59:46.910Z,0
2017-12-20T02:00:57.024Z,0
2017-12-20T02:02:06.817Z,0
2017-12-20T02:03:16.335Z,0
2017-12-20T02:04:26.132Z,0
2017-12-20T02:05:36.177Z,0
2017-12-20T02:06:46.290Z,0
2017-12-20T02:07:56.327Z,0
2017-12-20T02:09:06.378Z,0
2017-12-20T02:10:16.425Z,0
2017-12-20T02:11:25.443Z,0
2017-12-20T02:12:35.545Z,0
2017-12-20T02:13:45.341Z,0
2017-12-20T02:14:54.869Z,0
2017-12-20T02:16:05.209Z,0
2017-12-20T02:17:15.012Z,0
2017-12-20T02:18:25.064Z,0
2017-12-20T02:19:35.123Z,0
2017-12-20T02:20:45.181Z,0
2017-12-20T02:21:54.959Z,0
2017-12-20T02:23:05.004Z,0
2017-12-20T02:24:15.054Z,0
2017-12-20T02:25:24.843Z,0
2017-12-20T02:26:34.886Z,0
2017-12-20T02:27:44.675Z,0
2017-12-20T02:28:54.713Z,0
2017-12-20T02:30:04.757Z,0
2017-12-20T02:31:14.826Z,0
2017-12-20T02:32:24.889Z,0
2017-12-20T02:33:34.733Z,0
2017-12-20T02:34:44.517Z,0
2017-12-20T02:35:54.064Z,0
2017-12-20T02:37:04.117Z,0
2017-12-20T02:38:14.158Z,0
2017-12-20T02:39:24.204Z,0
2017-12-20T02:40:34.242Z,0
2017-12-20T02:41:43.782Z,0
2017-12-20T02:42:53.834Z,0
2017-12-20T02:44:03.888Z,0
2017-12-20T02:45:13.943Z,0
2017-12-20T02:46:23.218Z,0
2017-12-20T02:47:33.339Z,0
2017-12-20T02:48:43.388Z,0
2017-12-20T02:49:53.451Z,0
2017-12-20T02:51:03.546Z,0
2017-12-20T02:52:13.338Z,0
2017-12-20T02:53:23.164Z,0
2017-12-20T02:54:33.231Z,0
2017-12-20T02:55:43.291Z,0
2017-12-20T02:56:53.085Z,0
2017-12-20T02:58:02.615Z,0
2017-12-20T02:59:12.451Z,0
2017-12-20T03:00:22.240Z,0
2017-12-20T03:01:32.027Z,0
2017-12-20T03:02:42.079Z,0
2017-12-20T03:34:03.484Z,0
2017-12-20T03:35:13.283Z,0
2017-12-20T03:36:23.334Z,0
2017-12-20T03:37:32.867Z,0
2017-12-20T03:38:42.904Z,0
2017-12-20T03:39:52.694Z,0
2017-12-20T03:41:02.757Z,0
2017-12-20T03:42:12.538Z,0
2017-12-20T03:43:22.581Z,0
2017-12-20T03:44:32.369Z,0
2017-12-20T03:45:42.253Z,0
2017-12-20T03:46:52.003Z,0
2017-12-20T03:48:02.105Z,0
2017-12-20T03:49:11.878Z,0
2017-12-20T03:50:21.677Z,0
2017-12-20T03:51:30.732Z,0
2017-12-20T03:52:40.558Z,0
2017-12-20T03:53:50.624Z,0
2017-12-20T03:55:00.408Z,0
2017-12-20T03:56:10.510Z,0
2017-12-20T03:57:20.327Z,0
2017-12-20T03:58:30.383Z,0
2017-12-20T03:59:40.441Z,0
2017-12-20T04:00:50.498Z,0
2017-12-20T04:02:00.560Z,0
2017-12-20T04:03:10.191Z,0
2017-12-20T04:04:19.983Z,0
2017-12-20T04:05:29.787Z,0
2017-12-20T04:06:39.844Z,0
2017-12-20T04:07:49.927Z,0
2017-12-20T04:09:00.034Z,0
2017-12-20T04:10:09.568Z,0
2017-12-20T04:11:19.627Z,0
2017-12-20T04:12:29.681Z,0
2017-12-20T04:13:39.723Z,0
2017-12-20T04:14:49.784Z,0
2017-12-20T04:15:59.840Z,0
2017-12-20T04:17:09.635Z,0
2017-12-20T04:18:19.430Z,0
2017-12-20T04:19:29.244Z,0
2017-12-20T04:20:39.036Z,0
2017-12-20T04:21:49.089Z,0
2017-12-20T04:22:59.238Z,0
2017-12-20T04:24:09.288Z,0
2017-12-20T04:25:19.328Z,0
2017-12-20T04:26:29.397Z,0
2017-12-20T04:27:39.184Z,0
2017-12-20T04:28:48.967Z,0
2017-12-20T04:29:59.041Z,0
2017-12-20T04:31:09.086Z,0
2017-12-20T04:32:19.150Z,0
2017-12-20T04:33:29.218Z,0
2017-12-20T04:34:39.264Z,0
2017-12-20T04:35:49.327Z,0
2017-12-20T04:36:58.866Z,0
2017-12-20T04:38:08.914Z,0
2017-12-20T04:39:18.723Z,0
2017-12-20T04:40:28.511Z,0
2017-12-20T04:41:38.315Z,0
2017-12-20T04:42:48.107Z,0
2017-12-20T04:43:58.182Z,0
2017-12-20T04:45:07.970Z,0
2017-12-20T04:46:17.741Z,0
2017-12-20T04:47:27.793Z,0
2017-12-20T04:48:37.838Z,0
2017-12-20T04:49:47.686Z,0
2017-12-20T04:50:57.729Z,0
2017-12-20T04:52:07.515Z,0
2017-12-20T04:53:17.310Z,0
2017-12-20T04:54:27.108Z,0
2017-12-20T04:55:37.153Z,0
2017-12-20T04:56:46.966Z,0
2017-12-20T04:57:57.018Z,0
2017-12-20T04:59:06.805Z,0
2017-12-20T05:00:16.326Z,0
2017-12-20T05:01:26.123Z,0
2017-12-20T05:02:35.953Z,0
2017-12-20T05:03:45.746Z,0
2017-12-20T05:04:55.794Z,0
2017-12-20T05:06:05.321Z,0
2017-12-20T05:07:14.841Z,0
2017-12-20T05:08:24.372Z,0
2017-12-20T05:09:34.421Z,0
2017-12-20T05:10:44.223Z,0
2017-12-20T05:11:54.278Z,0
2017-12-20T05:13:04.122Z,0
2017-12-20T05:14:13.918Z,0
2017-12-20T05:15:23.706Z,0
2017-12-20T05:16:33.515Z,0
2017-12-20T05:17:43.302Z,0
2017-12-20T05:18:53.352Z,0
2017-12-20T05:20:02.866Z,0
2017-12-20T05:21:12.387Z,0
2017-12-20T05:22:22.190Z,0
2017-12-20T05:23:32.251Z,0
2017-12-20T05:24:42.110Z,0
2017-12-20T05:25:52.184Z,0
2017-12-20T05:27:02.243Z,0
2017-12-20T05:28:12.359Z,0
2017-12-20T05:29:22.152Z,0
2017-12-20T05:30:31.998Z,0
2017-12-20T05:31:42.027Z,0
2017-12-20T05:32:51.810Z,0
2017-12-20T05:34:01.862Z,0
2017-12-20T05:35:11.658Z,0
2017-12-20T05:36:21.719Z,0
2017-12-20T05:37:31.778Z,0
2017-12-20T05:38:41.824Z,0
2017-12-20T05:39:51.896Z,0
2017-12-20T05:41:01.938Z,0
2017-12-20T05:42:12.045Z,0
2017-12-20T05:43:21.851Z,0
2017-12-20T05:44:31.658Z,0
2017-12-20T05:45:41.704Z,0
2017-12-20T05:46:51.761Z,0
2017-12-20T05:48:01.602Z,0
2017-12-20T05:49:11.126Z,0
2017-12-20T05:50:21.169Z,0
2017-12-20T05:51:30.968Z,0
2017-12-20T05:52:40.767Z,0
2017-12-20T05:53:50.551Z,0
2017-12-20T05:55:00.347Z,0
2017-12-20T05:56:10.401Z,0
2017-12-20T05:57:20.204Z,0
2017-12-20T05:58:29.989Z,0
2017-12-20T05:59:40.036Z,0
2017-12-20T06:00:50.865Z,0
2017-12-20T06:02:00.663Z,0
2017-12-20T06:03:10.530Z,0
2017-12-20T06:04:20.629Z,0
2017-12-20T06:05:30.150Z,0
2017-12-20T06:06:39.932Z,0
2017-12-20T06:07:49.709Z,0
2017-12-20T06:08:59.229Z,0
2017-12-20T06:10:09.281Z,0
2017-12-20T06:11:19.077Z,0
2017-12-20T06:12:28.881Z,0
2017-12-20T06:13:38.926Z,0
2017-12-20T06:14:48.989Z,0
2017-12-20T06:15:59.035Z,0
2017-12-20T06:17:08.828Z,0
2017-12-20T06:18:18.874Z,0
2017-12-20T06:19:28.660Z,0
2017-12-20T06:20:38.729Z,0
2017-12-20T06:21:48.826Z,0
2017-12-20T06:22:58.875Z,0
2017-12-20T06:24:08.932Z,0
2017-12-20T06:25:18.723Z,0
2017-12-20T06:26:28.812Z,0
2017-12-20T06:27:38.879Z,0
2017-12-20T06:28:48.934Z,0
2017-12-20T06:29:58.991Z,0
2017-12-20T06:31:09.038Z,0
2017-12-20T06:32:19.108Z,0
2017-12-20T06:33:29.166Z,0
2017-12-20T06:34:39.228Z,0
2017-12-20T06:35:49.279Z,0
2017-12-20T06:36:59.327Z,0
2017-12-20T06:38:09.370Z,0
2017-12-20T06:39:19.493Z,0
2017-12-20T06:40:29.550Z,0
2017-12-20T06:41:39.333Z,0
2017-12-20T06:42:49.383Z,0
2017-12-20T06:43:59.171Z,0
2017-12-20T06:45:09.019Z,0
2017-12-20T06:46:18.805Z,0
2017-12-20T06:47:28.327Z,0
2017-12-20T06:48:37.849Z,0
2017-12-20T06:49:47.642Z,0
2017-12-20T06:50:57.710Z,0
2017-12-20T06:52:07.769Z,0
2017-12-20T06:53:17.571Z,0
2017-12-20T06:54:27.620Z,0
2017-12-20T06:55:37.664Z,0
2017-12-20T06:56:47.771Z,0
2017-12-20T06:57:57.825Z,0
2017-12-20T06:59:07.627Z,0
2017-12-20T07:00:19.013Z,0
2017-12-20T07:01:29.068Z,0
2017-12-20T07:02:38.860Z,0
2017-12-20T07:03:48.921Z,0
2017-12-20T07:04:58.977Z,0
2017-12-20T07:06:09.032Z,0
2017-12-20T07:07:19.086Z,0
2017-12-20T07:08:29.195Z,0
2017-12-20T07:09:39.238Z,0
2017-12-20T07:10:49.027Z,0
2017-12-20T07:11:59.101Z,0
2017-12-20T07:13:09.152Z,5
2017-12-20T07:14:19.015Z,5
2017-12-20T07:15:29.165Z,5
2017-12-20T07:16:39.211Z,5
2017-12-20T07:17:49.269Z,5
2017-12-20T07:18:59.054Z,5
2017-12-20T07:20:09.186Z,5
2017-12-20T07:21:19.239Z,5
2017-12-20T07:22:29.286Z,5
2017-12-20T07:23:39.074Z,5
2017-12-20T07:24:48.851Z,5
2017-12-20T07:25:58.377Z,5
2017-12-20T07:27:08.434Z,5
2017-12-20T07:28:18.220Z,5
2017-12-20T07:29:28.283Z,5
2017-12-20T07:30:38.370Z,5
2017-12-20T07:31:48.414Z,5
2017-12-20T07:32:58.214Z,5
2017-12-20T07:34:08.263Z,5
2017-12-20T07:35:18.049Z,5
2017-12-20T07:36:28.097Z,5
2017-12-20T07:37:38.164Z,5
2017-12-20T07:38:47.942Z,5
2017-12-20T07:39:57.736Z,5
2017-12-20T07:41:07.528Z,5
2017-12-20T07:42:17.333Z,5
2017-12-20T07:43:27.449Z,5
2017-12-20T07:44:37.494Z,5
2017-12-20T07:45:47.545Z,5
2017-12-20T07:46:57.332Z,5
2017-12-20T07:48:06.618Z,5
2017-12-20T07:49:16.410Z,5
2017-12-20T07:50:25.952Z,5
2017-12-20T07:51:36.050Z,5
2017-12-20T07:52:45.834Z,5
2017-12-20T07:53:55.877Z,5
2017-12-20T07:55:05.966Z,10
2017-12-20T07:56:15.502Z,10
2017-12-20T07:57:25.551Z,10
2017-12-20T07:58:35.604Z,10
2017-12-20T07:59:45.399Z,10
2017-12-20T08:00:55.249Z,10
2017-12-20T08:02:05.054Z,10
2017-12-20T08:03:15.138Z,10
2017-12-20T08:04:25.187Z,10
2017-12-20T08:05:34.976Z,10
2017-12-20T08:06:44.765Z,15
2017-12-20T08:07:54.299Z,15
2017-12-20T08:09:04.338Z,15
2017-12-20T08:10:14.394Z,15
2017-12-20T08:11:23.929Z,15
2017-12-20T08:12:33.740Z,15
2017-12-20T08:13:43.530Z,15
2017-12-20T08:14:53.571Z,20
2017-12-20T08:16:03.676Z,20
2017-12-20T08:17:12.942Z,20
2017-12-20T08:18:22.779Z,20
2017-12-20T08:19:32.852Z,20
2017-12-20T08:20:42.629Z,20
2017-12-20T08:21:52.426Z,20
2017-12-20T08:23:02.229Z,25
2017-12-20T08:24:12.319Z,25
2017-12-20T08:25:21.855Z,20
2017-12-20T08:26:31.664Z,20
2017-12-20T08:27:41.964Z,20
2017-12-20T08:28:51.835Z,20
2017-12-20T08:30:01.881Z,20
2017-12-20T08:31:11.951Z,20
2017-12-20T08:32:21.753Z,20
2017-12-20T08:33:31.787Z,20
2017-12-20T08:34:41.851Z,25
2017-12-20T08:35:51.923Z,25
2017-12-20T08:37:01.983Z,25
2017-12-20T08:38:12.564Z,25
2017-12-20T08:39:22.368Z,25
2017-12-20T08:40:32.153Z,25
2017-12-20T08:41:41.967Z,30
2017-12-20T08:42:52.070Z,30
2017-12-20T08:44:02.123Z,30
2017-12-20T08:45:11.924Z,30
2017-12-20T08:46:21.727Z,30
2017-12-20T08:47:31.799Z,35
2017-12-20T08:48:41.897Z,35
2017-12-20T08:49:51.969Z,35
2017-12-20T08:51:02.025Z,35
2017-12-20T08:52:11.843Z,30
2017-12-20T08:53:21.373Z,30
2017-12-20T08:54:31.462Z,30
2017-12-20T08:55:40.988Z,30
2017-12-20T08:56:52.832Z,30
2017-12-20T08:58:02.885Z,35
2017-12-20T08:59:12.457Z,35
2017-12-20T09:00:22.314Z,40
2017-12-20T09:01:31.855Z,40
2017-12-20T09:02:42.210Z,40
2017-12-20T09:03:51.818Z,40
2017-12-20T09:05:04.582Z,40
2017-12-20T09:06:19.517Z,40
2017-12-20T09:07:30.264Z,40
2017-12-20T09:08:40.311Z,45
2017-12-20T09:09:50.112Z,45
2017-12-20T09:10:59.644Z,45
2017-12-20T09:12:09.706Z,45
2017-12-20T09:13:19.794Z,45
2017-12-20T09:14:29.325Z,40
2017-12-20T09:15:39.130Z,45
2017-12-20T09:16:48.678Z,45
2017-12-20T09:17:58.538Z,45
2017-12-20T09:19:08.611Z,45
2017-12-20T09:20:18.412Z,45
2017-12-20T09:21:28.210Z,45
2017-12-20T09:22:38.011Z,45
2017-12-20T09:23:47.539Z,45
2017-12-20T09:24:57.589Z,45
2017-12-20T09:26:07.647Z,50
2017-12-20T09:27:17.695Z,50
2017-12-20T09:28:27.744Z,45
2017-12-20T09:29:37.843Z,40
2017-12-20T09:30:47.371Z,45
2017-12-20T09:31:57.161Z,45
2017-12-20T09:33:06.676Z,40
2017-12-20T09:34:16.754Z,45
2017-12-20T09:35:26.805Z,45
2017-12-20T09:36:36.607Z,45
2017-12-20T09:37:46.652Z,45
2017-12-20T09:38:56.743Z,45
2017-12-20T09:40:06.802Z,50
2017-12-20T09:41:16.809Z,50
2017-12-20T09:42:26.857Z,55
2017-12-20T09:43:36.971Z,55
2017-12-20T09:44:47.013Z,55
2017-12-20T09:45:56.834Z,55
2017-12-20T09:47:06.894Z,55
2017-12-20T09:48:16.935Z,55
2017-12-20T09:49:26.741Z,55
2017-12-20T09:50:36.779Z,60
2017-12-20T09:51:46.843Z,65
2017-12-20T09:52:56.922Z,65
2017-12-20T09:54:06.455Z,65
2017-12-20T09:55:16.245Z,65
2017-12-20T09:56:27.498Z,65
2017-12-20T09:57:37.584Z,65
2017-12-20T09:58:47.385Z,65
2017-12-20T09:59:57.460Z,65
2017-12-20T10:01:07.283Z,65
2017-12-20T10:02:17.112Z,65
2017-12-20T10:03:27.181Z,65
2017-12-20T10:04:37.240Z,65
2017-12-20T10:05:47.295Z,65
2017-12-20T10:06:57.110Z,65
2017-12-20T10:08:06.912Z,65
2017-12-20T10:09:16.987Z,65
2017-12-20T10:10:26.773Z,65
2017-12-20T10:11:36.860Z,65
2017-12-20T10:12:46.962Z,65
2017-12-20T10:13:56.761Z,60
2017-12-20T10:15:06.830Z,60
2017-12-20T10:16:16.654Z,60
2017-12-20T10:17:26.460Z,60
2017-12-20T10:18:36.268Z,60
2017-12-20T10:19:46.327Z,65
2017-12-20T10:20:55.859Z,65
2017-12-20T10:22:05.662Z,65
2017-12-20T10:23:15.458Z,65
2017-12-20T10:24:25.534Z,65
2017-12-20T10:25:35.877Z,65
2017-12-20T10:26:45.787Z,65
2017-12-20T10:27:55.894Z,65
2017-12-20T10:29:06.135Z,65
2017-12-20T10:30:16.247Z,65
2017-12-20T10:31:26.054Z,65
2017-12-20T10:32:35.851Z,65
2017-12-20T10:33:45.943Z,65
2017-12-20T10:34:55.755Z,65
2017-12-20T10:36:05.576Z,65
2017-12-20T10:37:15.632Z,65
2017-12-20T10:38:25.160Z,65
2017-12-20T10:39:35.244Z,60
2017-12-20T10:40:45.044Z,60
2017-12-20T10:41:55.147Z,60
2017-12-20T10:43:05.275Z,60
2017-12-20T10:44:15.346Z,60
2017-12-20T10:45:25.147Z,60
2017-12-20T10:46:35.203Z,65
2017-12-20T10:47:44.754Z,65
2017-12-20T10:48:54.565Z,65
2017-12-20T10:50:04.369Z,65
2017-12-20T10:51:14.158Z,70
2017-12-20T10:52:23.946Z,70
2017-12-20T10:53:34.076Z,70
2017-12-20T10:54:43.856Z,70
2017-12-20T10:55:53.892Z,75
2017-12-20T10:57:03.693Z,75
2017-12-20T10:58:13.792Z,75
2017-12-20T10:59:23.831Z,75
2017-12-20T11:00:33.627Z,75
2017-12-20T11:01:43.695Z,75
2017-12-20T11:02:53.488Z,75
2017-12-20T11:04:03.304Z,75
2017-12-20T11:05:13.373Z,75
2017-12-20T11:06:23.449Z,75
2017-12-20T11:07:32.969Z,75
2017-12-20T11:08:42.758Z,75
2017-12-20T11:09:52.830Z,75
2017-12-20T11:11:02.943Z,75
2017-12-20T11:12:12.515Z,75
2017-12-20T11:13:22.562Z,75
2017-12-20T11:14:32.855Z,80
2017-12-20T11:15:42.916Z,75
2017-12-20T11:16:52.702Z,75
2017-12-20T11:18:02.509Z,75
2017-12-20T11:19:12.560Z,75
2017-12-20T11:20:22.376Z,75
2017-12-20T11:21:32.159Z,75
2017-12-20T11:22:42.213Z,75
2017-12-20T11:23:52.296Z,75
2017-12-20T11:25:02.354Z,75
2017-12-20T11:26:11.918Z,75
2017-12-20T11:27:22.039Z,75
2017-12-20T11:28:32.087Z,75
2017-12-20T11:29:43.602Z,75
2017-12-20T11:30:53.401Z,75
2017-12-20T11:32:03.458Z,75
2017-12-20T11:33:14.254Z,75
2017-12-20T11:34:23.953Z,75
2017-12-20T11:35:33.759Z,75
2017-12-20T11:36:43.571Z,75
2017-12-20T11:37:53.375Z,75
2017-12-20T11:39:03.487Z,75
2017-12-20T11:40:13.546Z,75
2017-12-20T11:41:23.629Z,75
2017-12-20T11:42:33.417Z,75
2017-12-20T11:43:42.953Z,75
2017-12-20T11:44:52.760Z,75
2017-12-20T11:46:02.292Z,75
2017-12-20T11:47:12.110Z,75
2017-12-20T11:48:21.662Z,75
2017-12-20T11:49:31.450Z,75
2017-12-20T11:50:41.320Z,75
2017-12-20T11:51:51.146Z,75
2017-12-20T11:53:00.955Z,70
2017-12-20T11:54:11.036Z,70
2017-12-20T11:55:20.825Z,70
2017-12-20T11:56:30.896Z,65
2017-12-20T11:57:40.688Z,65
2017-12-20T11:58:50.500Z,65
2017-12-20T12:00:00.310Z,70
2017-12-20T12:01:10.384Z,70
2017-12-20T12:02:20.443Z,65
2017-12-20T12:03:30.520Z,65
2017-12-20T12:04:40.583Z,65
2017-12-20T12:05:50.652Z,65
2017-12-20T12:07:00.708Z,65
2017-12-20T12:08:10.826Z,65
2017-12-20T12:09:21.138Z,65
2017-12-20T12:10:31.195Z,65
2017-12-20T12:11:41.271Z,65
2017-12-20T12:12:51.343Z,65
2017-12-20T12:14:02.471Z,65
2017-12-20T12:15:12.270Z,65
2017-12-20T12:16:22.080Z,65
2017-12-20T12:17:32.149Z,60
2017-12-20T12:18:41.963Z,60
2017-12-20T12:19:51.817Z,60
2017-12-20T12:21:01.354Z,60
2017-12-20T12:22:11.213Z,60
2017-12-20T12:23:20.995Z,60
2017-12-20T12:24:31.060Z,60
2017-12-20T12:25:40.879Z,60
2017-12-20T12:26:50.426Z,65
2017-12-20T12:28:00.237Z,65
2017-12-20T12:29:10.034Z,65
2017-12-20T12:30:20.100Z,65
2017-12-20T12:31:30.199Z,65
2017-12-20T12:32:39.478Z,65
2017-12-20T12:33:49.283Z,65
2017-12-20T12:34:59.095Z,65
2017-12-20T12:36:08.902Z,65
2017-12-20T12:37:19.008Z,65
2017-12-20T12:38:29.072Z,65
2017-12-20T12:39:38.909Z,65
2017-12-20T12:40:48.987Z,65
2017-12-20T12:41:59.060Z,65
2017-12-20T12:43:09.201Z,65
2017-12-20T12:44:19.279Z,65
2017-12-20T12:45:28.551Z,65
2017-12-20T12:46:38.635Z,65
2017-12-20T12:47:48.435Z,65
2017-12-20T12:48:58.849Z,65
2017-12-20T12:50:08.647Z,65
2017-12-20T12:51:18.923Z,65
2017-12-20T12:52:28.750Z,65
2017-12-20T12:53:38.556Z,65
2017-12-20T12:54:48.668Z,65
2017-12-20T12:55:58.461Z,60
2017-12-20T12:57:08.535Z,60
2017-12-20T12:58:18.609Z,60
2017-12-20T12:59:28.142Z,60
2017-12-20T13:00:38.249Z,55
2017-12-20T13:01:48.041Z,55
2017-12-20T13:02:58.108Z,55
2017-12-20T13:04:07.897Z,55
2017-12-20T13:05:17.951Z,50
2017-12-20T13:06:27.733Z,50
2017-12-20T13:07:37.004Z,50
2017-12-20T13:08:47.067Z,50
2017-12-20T13:09:56.863Z,50
2017-12-20T13:11:06.682Z,50
2017-12-20T13:12:16.221Z,50
2017-12-20T13:13:26.298Z,50
2017-12-20T13:14:35.575Z,45
2017-12-20T13:15:45.640Z,45
2017-12-20T13:16:55.708Z,45
2017-12-20T13:18:05.517Z,40
2017-12-20T13:19:15.324Z,40
2017-12-20T13:20:25.134Z,40
2017-12-20T13:21:35.186Z,35
2017-12-20T13:22:45.267Z,35
2017-12-20T13:23:55.127Z,30
2017-12-20T13:25:04.931Z,30
2017-12-20T13:26:15.017Z,30
2017-12-20T13:27:25.075Z,30
2017-12-20T13:28:35.145Z,30
2017-12-20T13:29:46.268Z,30
2017-12-20T13:30:56.735Z,30
2017-12-20T13:32:06.530Z,25
2017-12-20T13:33:16.585Z,25
2017-12-20T13:34:26.662Z,25
2017-12-20T13:35:36.458Z,25
2017-12-20T13:36:46.258Z,25
2017-12-20T13:37:56.323Z,25
2017-12-20T13:39:06.376Z,25
2017-12-20T13:40:16.509Z,25
2017-12-20T13:41:26.609Z,25
2017-12-20T13:42:36.414Z,25
2017-12-20T13:43:46.479Z,25
2017-12-20T13:44:56.554Z,25
2017-12-20T13:46:06.356Z,25
2017-12-20T13:47:16.524Z,25
2017-12-20T13:48:26.606Z,25
2017-12-20T13:49:36.400Z,25
2017-12-20T13:50:46.191Z,25
2017-12-20T13:51:56.251Z,25
2017-12-20T13:53:06.359Z,25
2017-12-20T13:54:16.144Z,25
2017-12-20T13:55:25.969Z,25
2017-12-20T13:56:35.759Z,25
2017-12-20T13:57:45.563Z,25
2017-12-20T13:58:55.408Z,25
2017-12-20T14:00:04.943Z,20
2017-12-20T14:01:14.821Z,20
2017-12-20T14:02:24.872Z,20
2017-12-20T14:03:34.668Z,20
2017-12-20T14:04:44.547Z,20
2017-12-20T14:05:55.264Z,20
2017-12-20T14:07:05.396Z,20
2017-12-20T14:08:15.186Z,20
2017-12-20T14:09:25.251Z,20
2017-12-20T14:10:35.320Z,20
2017-12-20T14:11:45.386Z,20
2017-12-20T14:12:55.438Z,15
2017-12-20T14:14:04.966Z,15
2017-12-20T14:15:15.028Z,15
2017-12-20T14:16:26.625Z,15
2017-12-20T14:17:36.705Z,15
2017-12-20T14:18:46.811Z,10
2017-12-20T14:19:56.598Z,10
2017-12-20T14:21:06.406Z,10
2017-12-20T14:22:15.419Z,10
2017-12-20T14:23:25.475Z,10
2017-12-20T14:24:35.542Z,10
2017-12-20T14:25:45.365Z,10
2017-12-20T14:26:54.918Z,10
2017-12-20T14:28:04.722Z,10
2017-12-20T14:29:14.519Z,5
2017-12-20T14:30:24.346Z,5
2017-12-20T14:31:34.141Z,5
2017-12-20T14:32:44.190Z,5
2017-12-20T14:33:54.038Z,5
2017-12-20T14:35:04.098Z,5
2017-12-20T14:36:14.134Z,5
2017-12-20T14:37:24.188Z,5
2017-12-20T14:38:34.244Z,5
2017-12-20T14:39:44.309Z,5
2017-12-20T14:40:54.356Z,0
2017-12-20T14:42:04.414Z,0
2017-12-20T14:43:14.220Z,0
2017-12-20T14:44:24.064Z,0
2017-12-20T14:45:33.942Z,0
2017-12-20T14:46:43.750Z,0
2017-12-20T14:47:53.559Z,0
2017-12-20T14:49:03.620Z,0
2017-12-20T14:50:13.745Z,0
2017-12-20T14:51:23.859Z,0
2017-12-20T14:52:33.937Z,0
2017-12-20T14:53:43.991Z,0
2017-12-20T14:54:53.793Z,0
2017-12-20T14:56:03.852Z,0
2017-12-20T14:57:13.705Z,0
2017-12-20T14:58:23.521Z,0
2017-12-20T14:59:33.608Z,0
2017-12-20T15:00:43.425Z,0
2017-12-20T15:01:53.512Z,0
2017-12-20T15:03:03.635Z,0
2017-12-20T15:04:13.439Z,0
2017-12-20T15:05:23.251Z,0
2017-12-20T15:06:33.054Z,0
2017-12-20T15:07:43.141Z,0
2017-12-20T15:08:53.177Z,0
2017-12-20T15:10:02.980Z,0
2017-12-20T15:11:13.045Z,0
2017-12-20T15:12:22.842Z,0
2017-12-20T15:13:32.643Z,0
2017-12-20T15:14:42.478Z,0
2017-12-20T15:15:52.289Z,0
2017-12-20T15:17:02.092Z,0
2017-12-20T15:18:11.893Z,0
2017-12-20T15:19:21.754Z,0
2017-12-20T15:20:31.878Z,0
2017-12-20T15:21:41.684Z,0
2017-12-20T15:22:51.801Z,0
2017-12-20T15:24:01.878Z,0
2017-12-20T15:25:11.935Z,0
2017-12-20T15:26:22.009Z,0
2017-12-20T15:27:31.860Z,0
2017-12-20T15:28:41.678Z,0
2017-12-20T15:29:51.822Z,0
2017-12-20T15:31:02.229Z,0
2017-12-20T15:32:12.662Z,0
2017-12-20T15:33:22.207Z,0
2017-12-20T15:34:31.996Z,0
2017-12-20T15:35:42.162Z,0
2017-12-20T15:36:51.955Z,0
2017-12-20T15:38:01.734Z,0
2017-12-20T15:39:11.548Z,0
2017-12-20T15:40:21.638Z,0
2017-12-20T15:41:31.706Z,0
2017-12-20T15:42:41.525Z,0
2017-12-20T15:43:52.522Z,0
2017-12-20T15:45:02.632Z,0
2017-12-20T15:46:12.802Z,0
2017-12-20T15:47:22.920Z,0
2017-12-20T15:48:32.738Z,0
2017-12-20T15:49:42.824Z,0
2017-12-20T15:50:52.970Z,0
2017-12-20T15:52:02.767Z,0
2017-12-20T15:53:12.076Z,0
2017-12-20T15:54:21.884Z,0
2017-12-20T15:55:32.030Z,0
2017-12-20T15:56:41.833Z,0
2017-12-20T15:57:51.912Z,0
2017-12-20T15:59:01.992Z,0
2017-12-20T16:00:12.054Z,0
2017-12-20T16:01:21.856Z,0
2017-12-20T16:02:31.673Z,0
2017-12-20T16:03:41.725Z,0
2017-12-20T16:04:51.809Z,0
2017-12-20T16:06:01.878Z,0
2017-12-20T16:07:11.925Z,0
2017-12-20T16:08:21.735Z,0
2017-12-20T16:09:31.808Z,0
2017-12-20T16:10:41.882Z,0
2017-12-20T16:11:51.676Z,0
2017-12-20T16:13:02.509Z,0
2017-12-20T16:14:12.300Z,0
2017-12-20T16:15:22.357Z,0
2017-12-20T16:16:32.397Z,0
2017-12-20T16:17:42.201Z,0
2017-12-20T16:18:52.382Z,0
2017-12-20T16:20:02.553Z,0
2017-12-20T16:21:12.359Z,0
2017-12-20T16:22:22.158Z,0
2017-12-20T16:23:32.211Z,0
2017-12-20T16:24:42.020Z,0
2017-12-20T16:25:51.814Z,0
2017-12-20T16:27:01.881Z,0
2017-12-20T16:28:11.971Z,0
2017-12-20T16:29:22.051Z,0
2017-12-20T16:30:32.174Z,0
2017-12-20T16:31:41.990Z,0
2017-12-20T16:32:52.098Z,0
2017-12-20T16:34:02.164Z,0
2017-12-20T16:35:12.247Z,0
2017-12-20T16:36:22.315Z,0
2017-12-20T16:37:31.925Z,0
2017-12-20T16:38:41.741Z,0
2017-12-20T16:39:51.630Z,0
2017-12-20T16:41:01.702Z,0
2017-12-20T16:42:11.502Z,0
2017-12-20T16:43:21.665Z,0
2017-12-20T16:44:31.767Z,0
2017-12-20T16:45:41.384Z,0
2017-12-20T16:46:51.506Z,0
2017-12-20T16:48:01.563Z,0
2017-12-20T16:49:11.168Z,0
2017-12-20T16:50:21.638Z,0
2017-12-20T16:51:31.737Z,0
2017-12-20T16:52:41.831Z,0
2017-12-20T16:53:52.812Z,0
2017-12-20T16:55:02.899Z,0
2017-12-20T16:56:13.020Z,0
2017-12-20T16:57:23.116Z,0
2017-12-20T16:58:32.916Z,0
2017-12-20T16:59:43.007Z,0
2017-12-20T17:00:53.083Z,0
2017-12-20T17:02:02.894Z,0
2017-12-20T17:03:12.957Z,0
2017-12-20T17:04:22.760Z,0
2017-12-20T17:05:32.827Z,0
2017-12-20T17:06:42.620Z,0
2017-12-20T17:07:52.425Z,0
2017-12-20T17:09:02.489Z,0
2017-12-20T17:10:12.302Z,0
2017-12-20T17:11:22.116Z,0
2017-12-20T17:12:32.264Z,0
2017-12-20T17:13:42.400Z,0
2017-12-20T17:14:52.483Z,0
2017-12-20T17:16:02.577Z,0
2017-12-20T17:17:12.638Z,0
2017-12-20T17:18:22.532Z,0
2017-12-20T17:19:32.525Z,0
2017-12-20T17:20:42.326Z,0
2017-12-20T17:21:52.143Z,0
2017-12-20T17:23:01.706Z,0
2017-12-20T17:24:11.865Z,0
2017-12-20T17:25:21.933Z,0
2017-12-20T17:26:31.200Z,0
2017-12-20T17:27:41.273Z,0
2017-12-20T17:28:51.085Z,0
2017-12-20T17:30:00.943Z,0